createdAt,value
2019-03-17T00:00:10.294Z,95.38
2019-03-17T00:05:06.862Z,92.27
2019-03-17T00:07:35.370Z,92.60
2019-03-17T00:10:04.053Z,91.12
2019-03-17T00:12:32.558Z,88.17
2019-03-17T00:15:05.556Z,93.65
2019-03-17T00:17:31.523Z,83.67
2019-03-17T00:20:00.099Z,81.65
2019-03-17T00:22:28.653Z,87.75
2019-03-17T00:25:08.590Z,83.47
2019-03-17T00:27:27.447Z,90.53
2019-03-17T00:29:56.135Z,92.62
2019-03-17T00:32:24.638Z,94.28
2019-03-17T00:34:53.330Z,87.42
2019-03-17T00:37:21.989Z,85.12
2019-03-17T00:39:50.630Z,92.85
2019-03-17T00:42:19.314Z,86.92
2019-03-17T00:44:47.895Z,89.28
2019-03-17T00:47:16.590Z,86.32
2019-03-17T00:49:45.229Z,85.80
2019-03-17T00:52:13.873Z,94.97
2019-03-17T00:54:42.549Z,88.85
2019-03-17T00:57:11.278Z,94.30
2019-03-17T00:59:40.112Z,89.07
2019-03-17T01:02:09.140Z,95.75
2019-03-17T01:04:38.507Z,85.50
2019-03-17T01:07:07.186Z,92.05
2019-03-17T01:09:36.516Z,88.07
2019-03-17T01:12:05.195Z,89.85
2019-03-17T01:14:33.850Z,91.10
2019-03-17T01:17:02.462Z,88.27
2019-03-17T01:19:31.037Z,90.95
2019-03-17T01:21:59.756Z,88.20
2019-03-17T01:24:28.466Z,89.70
2019-03-17T01:26:57.120Z,97.57
2019-03-17T01:29:25.831Z,92.42
2019-03-17T01:31:54.394Z,95.30
2019-03-17T01:34:24.461Z,101.60
2019-03-17T01:36:53.156Z,103.02
2019-03-17T01:39:21.810Z,106.55
2019-03-17T01:41:50.505Z,90.53
2019-03-17T01:44:19.152Z,94.77
2019-03-17T01:46:47.803Z,94.80
2019-03-17T01:49:16.491Z,91.42
2019-03-17T01:51:45.135Z,96.12
2019-03-17T01:54:13.852Z,96.17
2019-03-17T01:56:42.502Z,92.78
2019-03-17T01:59:11.145Z,96.42
2019-03-17T02:01:39.827Z,93.62
2019-03-17T02:04:08.460Z,98.17
2019-03-17T02:06:37.140Z,90.65
2019-03-17T02:09:07.589Z,98.72
2019-03-17T02:11:36.252Z,93.97
2019-03-17T02:14:04.915Z,96.65
2019-03-17T02:16:33.494Z,92.62
2019-03-17T02:19:02.208Z,93.70
2019-03-17T02:21:30.781Z,87.57
2019-03-17T02:23:59.339Z,92.67
2019-03-17T02:26:28.020Z,86.63
2019-03-17T02:28:56.582Z,89.45
2019-03-17T02:31:25.196Z,95.92
2019-03-17T02:33:53.782Z,90.55
2019-03-17T02:36:22.436Z,92.42
2019-03-17T02:38:52.954Z,93.47
2019-03-17T02:41:21.578Z,86.50
2019-03-17T02:43:50.202Z,92.60
2019-03-17T02:46:18.987Z,94.13
2019-03-17T02:48:47.551Z,91.97
2019-03-17T02:51:16.260Z,94.65
2019-03-17T02:53:44.835Z,89.47
2019-03-17T02:56:13.480Z,91.22
2019-03-17T02:58:42.154Z,92.85
2019-03-17T03:01:10.810Z,92.25
2019-03-17T03:03:39.501Z,90.05
2019-03-17T03:06:08.091Z,90.87
2019-03-17T03:08:36.734Z,94.20
2019-03-17T03:11:07.366Z,90.17
2019-03-17T03:13:35.925Z,95.70
2019-03-17T03:16:05.843Z,100.92
2019-03-17T03:18:35.002Z,94.20
2019-03-17T03:21:03.528Z,89.42
2019-03-17T03:23:32.130Z,92.60
2019-03-17T03:26:00.702Z,88.78
2019-03-17T03:28:29.560Z,94.10
2019-03-17T03:30:58.221Z,92.92
2019-03-17T03:33:26.801Z,95.17
2019-03-17T03:36:10.051Z,94.17
2019-03-17T03:38:25.715Z,95.28
2019-03-17T03:40:54.353Z,95.40
2019-03-17T03:43:23.002Z,91.90
2019-03-17T03:45:51.636Z,95.00
2019-03-17T03:48:20.239Z,94.65
2019-03-17T03:50:48.826Z,92.57
2019-03-17T03:53:17.487Z,91.37
2019-03-17T03:55:46.145Z,95.70
2019-03-17T03:58:14.838Z,90.83
2019-03-17T04:00:43.679Z,93.05
2019-03-17T04:03:12.322Z,97.55
2019-03-17T04:05:40.935Z,92.42
2019-03-17T04:08:09.505Z,92.88
2019-03-17T04:10:40.031Z,92.50
2019-03-17T04:13:08.584Z,97.53
2019-03-17T04:15:37.217Z,93.92
2019-03-17T04:18:05.888Z,96.37
2019-03-17T04:20:34.540Z,101.00
2019-03-17T04:23:03.446Z,97.45
2019-03-17T04:25:33.678Z,95.62
2019-03-17T04:28:02.328Z,91.37
2019-03-17T04:30:30.936Z,92.85
2019-03-17T04:32:59.579Z,99.20
2019-03-17T04:35:28.282Z,96.30
2019-03-17T04:37:56.848Z,98.05
2019-03-17T04:40:25.430Z,96.15
2019-03-17T04:42:54.098Z,92.53
2019-03-17T04:45:22.760Z,95.67
2019-03-17T04:47:51.361Z,97.75
2019-03-17T04:50:20.014Z,96.10
2019-03-17T04:52:48.645Z,92.62
2019-03-17T04:55:17.318Z,92.65
2019-03-17T04:57:45.975Z,93.05
2019-03-17T05:00:14.520Z,97.27
2019-03-17T05:02:45.015Z,95.80
2019-03-17T05:05:14.520Z,99.55
2019-03-17T05:07:43.041Z,93.35
2019-03-17T05:10:11.682Z,97.40
2019-03-17T05:12:40.284Z,94.58
2019-03-17T05:15:10.736Z,97.78
2019-03-17T05:17:41.406Z,94.30
2019-03-17T05:20:11.628Z,95.55
2019-03-17T05:22:40.125Z,91.00
2019-03-17T05:25:08.840Z,93.45
2019-03-17T05:27:37.478Z,96.08
2019-03-17T05:30:09.024Z,95.35
2019-03-17T05:32:37.696Z,98.95
2019-03-17T05:35:07.030Z,93.50
2019-03-17T05:37:40.092Z,97.30
2019-03-17T05:40:10.275Z,93.37
2019-03-17T05:42:40.651Z,93.82
2019-03-17T05:45:09.127Z,96.78
2019-03-17T05:47:37.761Z,97.25
2019-03-17T05:50:08.352Z,98.03
2019-03-17T05:52:36.917Z,100.58
2019-03-17T05:55:08.142Z,97.17
2019-03-17T05:57:36.753Z,99.40
2019-03-17T06:00:11.386Z,94.80
2019-03-17T06:02:40.162Z,97.17
2019-03-17T06:05:09.100Z,92.42
2019-03-17T06:07:37.776Z,103.02
2019-03-17T06:10:07.921Z,92.62
2019-03-17T06:12:36.479Z,95.67
2019-03-17T06:15:08.427Z,92.82
2019-03-17T06:17:37.074Z,91.72
2019-03-17T06:20:07.967Z,84.92
2019-03-17T06:22:36.601Z,90.47
2019-03-17T06:25:07.766Z,90.30
2019-03-17T06:27:36.433Z,84.92
2019-03-17T06:30:10.693Z,93.17
2019-03-17T06:32:39.288Z,80.83
2019-03-17T06:35:07.947Z,83.50
2019-03-17T06:37:36.607Z,83.95
2019-03-17T06:40:14.943Z,77.85
2019-03-17T06:42:43.577Z,83.15
2019-03-17T06:45:12.271Z,80.70
2019-03-17T06:47:40.927Z,79.42
2019-03-17T06:50:16.913Z,80.47
2019-03-17T06:52:45.570Z,81.20
2019-03-17T06:55:16.210Z,78.37
2019-03-17T06:57:44.898Z,75.85
2019-03-17T07:00:14.544Z,81.28
2019-03-17T07:02:43.242Z,77.35
2019-03-17T07:05:11.879Z,79.80
2019-03-17T07:07:44.330Z,78.07
2019-03-17T07:10:11.493Z,75.75
2019-03-17T07:12:40.069Z,76.53
2019-03-17T07:15:11.253Z,79.85
2019-03-17T07:17:39.898Z,76.03
2019-03-17T07:20:13.811Z,76.65
2019-03-17T07:22:42.427Z,77.67
2019-03-17T07:25:11.095Z,79.50
2019-03-17T07:27:39.816Z,82.17
2019-03-17T07:30:16.266Z,76.60
2019-03-17T07:32:44.930Z,75.50
2019-03-17T07:35:13.537Z,78.10
2019-03-17T07:37:42.119Z,79.30
2019-03-17T07:40:13.207Z,79.07
2019-03-17T07:42:41.872Z,73.60
2019-03-17T07:45:11.792Z,76.07
2019-03-17T07:47:40.431Z,78.57
2019-03-17T07:50:12.194Z,76.60
2019-03-17T07:52:40.861Z,72.65
2019-03-17T07:55:10.442Z,74.42
2019-03-17T07:57:39.137Z,78.25
2019-03-17T08:00:12.123Z,73.25
2019-03-17T08:02:44.726Z,70.83
2019-03-17T08:05:18.388Z,73.87
2019-03-17T08:07:47.038Z,66.87
2019-03-17T08:10:16.704Z,74.30
2019-03-17T08:12:48.156Z,75.52
2019-03-17T08:15:16.837Z,68.15
2019-03-17T08:17:45.423Z,70.62
2019-03-17T08:20:14.564Z,69.05
2019-03-17T08:22:43.238Z,72.75
2019-03-17T08:25:12.289Z,67.03
2019-03-17T08:27:40.992Z,64.20
2019-03-17T08:30:12.688Z,62.45
2019-03-17T08:32:41.597Z,62.85
2019-03-17T08:35:10.938Z,65.28
2019-03-17T08:37:39.603Z,63.92
2019-03-17T08:40:16.332Z,58.38
2019-03-17T08:42:44.936Z,60.40
2019-03-17T08:45:14.345Z,49.53
2019-03-17T08:47:42.997Z,58.20
2019-03-17T08:50:13.773Z,55.75
2019-03-17T08:52:42.445Z,55.10
2019-03-17T08:55:11.429Z,53.98
2019-03-17T08:57:40.115Z,51.48
2019-03-17T09:00:19.328Z,52.27
2019-03-17T09:02:48.023Z,46.08
2019-03-17T09:05:36.053Z,45.35
2019-03-17T09:08:04.732Z,48.05
2019-03-17T09:10:33.369Z,48.87
2019-03-17T09:13:04.286Z,49.25
2019-03-17T09:15:32.376Z,45.73
2019-03-17T09:18:01.033Z,48.68
2019-03-17T09:20:29.705Z,52.38
2019-03-17T09:22:58.357Z,43.17
2019-03-17T09:25:27.040Z,50.23
2019-03-17T09:27:55.672Z,37.05
2019-03-17T09:30:24.322Z,37.90
2019-03-17T09:32:52.921Z,40.60
2019-03-17T09:35:21.502Z,37.67
2019-03-17T09:37:50.213Z,36.42
2019-03-17T09:40:19.146Z,37.15
2019-03-17T09:42:47.813Z,42.03
2019-03-17T09:45:16.606Z,39.55
2019-03-17T09:47:45.245Z,39.35
2019-03-17T09:50:20.753Z,32.63
2019-03-17T09:52:49.403Z,37.42
2019-03-17T09:55:18.056Z,33.83
2019-03-17T09:57:46.736Z,30.88
2019-03-17T10:00:22.427Z,32.65
2019-03-17T10:02:51.041Z,35.20
2019-03-17T10:05:19.671Z,32.98
2019-03-17T10:07:48.307Z,36.53
2019-03-17T10:10:18.492Z,32.67
2019-03-17T10:12:47.147Z,34.00
2019-03-17T10:15:17.316Z,27.87
2019-03-17T10:17:45.948Z,34.25
2019-03-17T10:20:19.675Z,26.90
2019-03-17T10:22:48.307Z,34.00
2019-03-17T10:25:16.880Z,25.15
2019-03-17T10:27:45.487Z,26.37
2019-03-17T10:30:18.313Z,27.17
2019-03-17T10:32:46.930Z,21.37
2019-03-17T10:35:15.577Z,27.25
2019-03-17T10:37:44.143Z,20.50
2019-03-17T10:40:18.471Z,23.35
2019-03-17T10:42:47.125Z,24.15
2019-03-17T10:45:15.802Z,20.55
2019-03-17T10:47:44.439Z,22.93
2019-03-17T10:50:15.232Z,24.35
2019-03-17T10:52:43.862Z,21.90
2019-03-17T10:55:12.430Z,26.42
2019-03-17T10:57:41.081Z,26.65
2019-03-17T11:00:20.088Z,20.08
2019-03-17T11:02:48.731Z,23.77
2019-03-17T11:05:17.417Z,29.23
2019-03-17T11:07:45.911Z,27.90
2019-03-17T11:10:14.854Z,26.42
2019-03-17T11:12:43.541Z,28.47
2019-03-17T11:15:17.091Z,25.17
2019-03-17T11:17:45.769Z,29.57
2019-03-17T11:20:14.805Z,25.37
2019-03-17T11:22:43.480Z,33.92
2019-03-17T11:25:20.097Z,27.70
2019-03-17T11:27:48.819Z,31.37
2019-03-17T11:30:18.744Z,26.85
2019-03-17T11:32:47.663Z,26.82
2019-03-17T11:35:16.634Z,24.92
2019-03-17T11:37:45.628Z,34.18
2019-03-17T11:40:25.918Z,26.90
2019-03-17T11:42:55.503Z,27.17
2019-03-17T11:45:24.475Z,30.70
2019-03-17T11:47:53.467Z,29.98
2019-03-17T11:50:22.567Z,27.87
2019-03-17T11:52:51.316Z,29.07
2019-03-17T11:55:19.967Z,35.38
2019-03-17T11:57:48.536Z,27.00
2019-03-17T12:00:19.573Z,29.55
2019-03-17T12:02:49.779Z,29.30
2019-03-17T12:05:18.494Z,28.10
2019-03-17T12:07:48.929Z,31.37
2019-03-17T12:10:23.629Z,29.15
2019-03-17T12:12:52.285Z,26.07
2019-03-17T12:15:35.128Z,26.27
2019-03-17T12:18:03.779Z,35.23
2019-03-17T12:20:32.426Z,30.02
2019-03-17T12:23:01.033Z,30.23
2019-03-17T12:25:29.516Z,30.57
2019-03-17T12:28:04.405Z,33.48
2019-03-17T12:30:29.020Z,30.50
2019-03-17T12:32:57.663Z,26.40
2019-03-17T12:35:26.278Z,31.52
2019-03-17T12:37:54.925Z,31.75
2019-03-17T12:40:23.561Z,27.93
2019-03-17T12:42:52.217Z,30.25
2019-03-17T12:45:20.932Z,28.25
2019-03-17T12:47:49.642Z,24.55
2019-03-17T12:50:19.993Z,26.87
2019-03-17T12:52:48.682Z,29.63
2019-03-17T12:55:17.329Z,29.55
2019-03-17T12:57:45.892Z,31.20
2019-03-17T13:00:19.592Z,30.70
2019-03-17T13:02:48.287Z,31.90
2019-03-17T13:05:16.919Z,32.05
2019-03-17T13:07:45.534Z,27.45
2019-03-17T13:10:16.746Z,29.95
2019-03-17T13:12:45.528Z,29.70
2019-03-17T13:15:14.141Z,25.95
2019-03-17T13:17:42.654Z,29.67
2019-03-17T13:20:13.425Z,32.08
2019-03-17T13:22:42.114Z,29.23
2019-03-17T13:25:11.650Z,29.85
2019-03-17T13:27:40.343Z,26.17
2019-03-17T13:30:17.026Z,28.50
2019-03-17T13:32:45.726Z,28.17
2019-03-17T13:35:14.370Z,25.17
2019-03-17T13:37:42.936Z,30.68
2019-03-17T13:40:28.232Z,29.82
2019-03-17T13:42:47.014Z,29.72
2019-03-17T13:45:15.713Z,27.60
2019-03-17T13:47:44.354Z,29.05
2019-03-17T13:50:15.149Z,33.15
2019-03-17T13:52:43.783Z,28.52
2019-03-17T13:55:12.369Z,32.38
2019-03-17T13:57:43.072Z,29.95
2019-03-17T14:00:15.819Z,29.00
2019-03-17T14:02:44.390Z,27.40
2019-03-17T14:05:13.107Z,26.35
2019-03-17T14:07:41.772Z,26.00
2019-03-17T14:10:15.371Z,29.90
2019-03-17T14:12:44.041Z,32.25
2019-03-17T14:15:14.629Z,27.13
2019-03-17T14:17:43.219Z,27.00
2019-03-17T14:20:20.856Z,30.45
2019-03-17T14:22:49.834Z,24.05
2019-03-17T14:25:24.506Z,25.92
2019-03-17T14:27:53.178Z,28.07
2019-03-17T14:30:21.810Z,27.65
2019-03-17T14:32:50.483Z,26.85
2019-03-17T14:35:21.491Z,28.32
2019-03-17T14:37:49.460Z,26.75
2019-03-17T14:40:18.034Z,29.48
2019-03-17T14:42:50.751Z,30.12
2019-03-17T14:45:19.419Z,25.95
2019-03-17T14:47:48.052Z,29.80
2019-03-17T14:50:21.739Z,26.93
2019-03-17T14:52:50.402Z,24.30
2019-03-17T14:55:19.049Z,28.98
2019-03-17T14:57:47.717Z,29.85
2019-03-17T15:00:21.650Z,28.47
2019-03-17T15:02:50.320Z,26.55
2019-03-17T15:05:18.983Z,32.17
2019-03-17T15:07:47.621Z,31.85
2019-03-17T15:10:20.422Z,30.65
2019-03-17T15:12:49.056Z,29.32
2019-03-17T15:15:18.997Z,25.92
2019-03-17T15:17:47.710Z,29.80
2019-03-17T15:20:22.706Z,28.17
2019-03-17T15:22:51.367Z,33.83
2019-03-17T15:25:19.958Z,32.17
2019-03-17T15:27:48.616Z,30.68
2019-03-17T15:30:28.694Z,29.85
2019-03-17T15:32:57.328Z,28.83
2019-03-17T15:35:26.044Z,27.67
2019-03-17T15:37:54.705Z,28.27
2019-03-17T15:40:23.282Z,28.27
2019-03-17T15:42:51.989Z,30.75
2019-03-17T15:45:21.713Z,28.52
2019-03-17T15:47:50.414Z,27.13
2019-03-17T15:50:24.392Z,25.92
2019-03-17T15:52:52.961Z,27.00
2019-03-17T15:55:21.652Z,29.12
2019-03-17T15:57:50.308Z,33.30
2019-03-17T16:00:26.038Z,28.70
2019-03-17T16:02:53.230Z,30.23
2019-03-17T16:05:21.892Z,27.80
2019-03-17T16:07:50.492Z,31.17
2019-03-17T16:10:23.869Z,29.50
2019-03-17T16:12:52.568Z,26.52
2019-03-17T16:15:21.185Z,32.75
2019-03-17T16:17:49.868Z,26.90
2019-03-17T16:20:25.124Z,33.30
2019-03-17T16:22:53.774Z,28.70
2019-03-17T16:25:36.843Z,25.05
2019-03-17T16:28:05.475Z,35.70
2019-03-17T16:30:34.112Z,35.48
2019-03-17T16:33:02.732Z,30.95
2019-03-17T16:35:31.377Z,29.18
2019-03-17T16:38:00.057Z,26.82
2019-03-17T16:40:30.499Z,30.55
2019-03-17T16:42:59.142Z,32.17
2019-03-17T16:45:27.829Z,29.12
2019-03-17T16:47:56.466Z,28.83
2019-03-17T16:50:25.188Z,31.82
2019-03-17T16:52:53.701Z,32.30
2019-03-17T16:55:22.363Z,31.93
2019-03-17T16:57:51.038Z,30.48
2019-03-17T17:00:21.561Z,32.60
2019-03-17T17:02:50.238Z,36.42
2019-03-17T17:05:26.206Z,33.92
2019-03-17T17:07:54.982Z,31.97
2019-03-17T17:10:30.617Z,35.05
2019-03-17T17:12:59.317Z,40.35
2019-03-17T17:15:30.559Z,30.15
2019-03-17T17:17:59.253Z,30.20
2019-03-17T17:20:32.824Z,36.88
2019-03-17T17:23:02.723Z,42.38
2019-03-17T17:25:31.322Z,35.25
2019-03-17T17:27:59.981Z,42.13
2019-03-17T17:30:28.680Z,34.73
2019-03-17T17:32:57.331Z,40.83
2019-03-17T17:35:25.966Z,39.23
2019-03-17T17:37:54.650Z,43.35
2019-03-17T17:40:25.454Z,36.75
2019-03-17T17:42:54.151Z,39.23
2019-03-17T17:45:24.043Z,38.02
2019-03-17T17:47:52.661Z,38.50
2019-03-17T17:50:23.795Z,39.25
2019-03-17T17:52:52.455Z,36.68
2019-03-17T17:55:21.160Z,40.92
2019-03-17T17:57:52.480Z,44.13
2019-03-17T18:00:37.519Z,34.13
2019-03-17T18:03:06.131Z,39.50
2019-03-17T18:05:34.776Z,38.73
2019-03-17T18:08:03.459Z,36.60
2019-03-17T18:10:32.105Z,36.33
2019-03-17T18:13:00.669Z,44.13
2019-03-17T18:15:35.260Z,38.73
2019-03-17T18:18:03.915Z,37.48
2019-03-17T18:20:32.525Z,32.13
2019-03-17T18:23:01.170Z,38.83
2019-03-17T18:25:29.854Z,37.45
2019-03-17T18:27:58.504Z,39.53
2019-03-17T18:30:27.162Z,36.50
2019-03-17T18:32:55.830Z,38.20
2019-03-17T18:35:24.532Z,36.63
2019-03-17T18:37:53.208Z,42.10
2019-03-17T18:40:22.438Z,38.42
2019-03-17T18:42:51.081Z,42.80
2019-03-17T18:45:28.406Z,36.68
2019-03-17T18:47:57.802Z,39.75
2019-03-17T18:50:27.043Z,39.70
2019-03-17T18:52:55.555Z,39.05
2019-03-17T18:55:24.198Z,36.05
2019-03-17T18:57:54.736Z,39.40
2019-03-17T19:00:25.385Z,46.15
2019-03-17T19:02:54.104Z,44.13
2019-03-17T19:05:22.742Z,44.05
2019-03-17T19:07:51.367Z,40.33
2019-03-17T19:10:21.036Z,45.05
2019-03-17T19:12:49.612Z,34.80
2019-03-17T19:15:22.405Z,41.68
2019-03-17T19:17:50.980Z,42.95
2019-03-17T19:20:21.724Z,42.43
2019-03-17T19:22:50.317Z,44.13
2019-03-17T19:25:26.012Z,40.43
2019-03-17T19:27:54.697Z,43.20
2019-03-17T19:30:23.676Z,40.17
2019-03-17T19:32:53.070Z,43.38
2019-03-17T19:35:21.727Z,54.63
2019-03-17T19:37:50.419Z,39.80
2019-03-17T19:40:20.354Z,44.27
2019-03-17T19:42:58.765Z,45.95
2019-03-17T19:45:19.152Z,46.25
2019-03-17T19:47:47.840Z,46.23
2019-03-17T19:50:18.100Z,44.13
2019-03-17T19:52:46.810Z,43.40
2019-03-17T19:55:15.391Z,44.45
2019-03-17T19:57:44.036Z,45.20
2019-03-17T20:00:19.687Z,38.15
2019-03-17T20:02:48.323Z,41.45
2019-03-17T20:05:16.961Z,40.50
2019-03-17T20:07:45.620Z,37.83
2019-03-17T20:10:28.225Z,35.48
2019-03-17T20:12:56.854Z,35.58
2019-03-17T20:15:25.416Z,40.08
2019-03-17T20:17:54.106Z,32.60
2019-03-17T20:20:22.749Z,32.28
2019-03-17T20:22:51.484Z,31.12
2019-03-17T20:25:20.015Z,31.05
2019-03-17T20:27:48.651Z,28.27
2019-03-17T20:30:19.226Z,30.52
2019-03-17T20:32:47.892Z,29.82
2019-03-17T20:35:16.607Z,26.02
2019-03-17T20:37:45.360Z,24.35
2019-03-17T20:40:15.213Z,30.77
2019-03-17T20:42:43.768Z,23.80
2019-03-17T20:45:13.423Z,27.42
2019-03-17T20:47:42.074Z,25.85
2019-03-17T20:50:18.546Z,35.23
2019-03-17T20:52:47.449Z,24.92
2019-03-17T20:55:16.088Z,25.15
2019-03-17T20:57:44.725Z,23.50
2019-03-17T21:00:20.042Z,27.87
2019-03-17T21:02:48.550Z,24.37
2019-03-17T21:05:17.251Z,24.35
2019-03-17T21:07:45.897Z,26.87
2019-03-17T21:10:15.664Z,22.22
2019-03-17T21:12:44.361Z,25.72
2019-03-17T21:15:17.948Z,27.95
2019-03-17T21:17:46.712Z,22.70
2019-03-17T21:20:17.134Z,19.67
2019-03-17T21:22:45.817Z,18.77
2019-03-17T21:25:14.465Z,25.10
2019-03-17T21:27:43.110Z,25.10
2019-03-17T21:30:14.906Z,23.22
2019-03-17T21:32:43.548Z,27.90
2019-03-17T21:35:12.254Z,22.75
2019-03-17T21:37:40.818Z,17.02
2019-03-17T21:40:11.429Z,21.57
2019-03-17T21:42:40.047Z,18.55
2019-03-17T21:45:10.480Z,17.07
2019-03-17T21:47:39.163Z,20.40
2019-03-17T21:50:21.048Z,15.30
2019-03-17T21:52:49.744Z,23.73
2019-03-17T21:55:18.407Z,21.82
2019-03-17T21:57:47.049Z,20.65
2019-03-17T22:00:21.351Z,18.52
2019-03-17T22:02:49.925Z,21.52
2019-03-17T22:05:18.626Z,19.73
2019-03-17T22:07:50.661Z,22.87
2019-03-17T22:10:19.441Z,18.87
2019-03-17T22:12:48.128Z,16.25
2019-03-17T22:15:17.803Z,21.90
2019-03-17T22:17:46.337Z,22.77
2019-03-17T22:20:15.477Z,23.18
2019-03-17T22:22:44.145Z,21.93
2019-03-17T22:25:16.552Z,19.60
2019-03-17T22:27:45.116Z,16.90
2019-03-17T22:30:21.233Z,17.32
2019-03-17T22:32:50.804Z,20.23
2019-03-17T22:35:19.439Z,23.75
2019-03-17T22:37:48.096Z,17.60
2019-03-17T22:40:17.827Z,21.37
2019-03-17T22:42:46.507Z,18.15
2019-03-17T22:45:16.042Z,20.40
2019-03-17T22:47:44.663Z,17.35
2019-03-17T22:50:19.362Z,18.77
2019-03-17T22:52:48.002Z,19.15
2019-03-17T22:55:16.612Z,20.10
2019-03-17T22:57:45.164Z,19.50
2019-03-17T23:00:35.257Z,14.58
2019-03-17T23:03:03.903Z,18.23
2019-03-17T23:05:32.490Z,17.23
2019-03-17T23:08:01.152Z,17.62
2019-03-17T23:10:29.722Z,17.27
2019-03-17T23:12:58.408Z,21.93
2019-03-17T23:15:27.164Z,21.37
2019-03-17T23:17:55.802Z,22.67
2019-03-17T23:20:24.476Z,21.50
2019-03-17T23:22:53.063Z,20.08
2019-03-17T23:25:21.688Z,19.37
2019-03-17T23:27:50.346Z,16.02
2019-03-17T23:30:20.378Z,16.00
2019-03-17T23:32:49.614Z,19.75
2019-03-17T23:35:18.736Z,23.83
2019-03-17T23:37:47.342Z,20.02
2019-03-17T23:40:16.968Z,17.65
2019-03-17T23:42:45.608Z,16.32
2019-03-17T23:45:14.224Z,18.92
2019-03-17T23:47:42.868Z,14.33
2019-03-17T23:50:14.914Z,21.80
2019-03-17T23:52:43.640Z,21.12
2019-03-17T23:55:13.386Z,15.88
2019-03-17T23:57:42.163Z,18.48
